createdAt,value
2018-08-03T00:00:46.643Z,17.30
2018-08-03T00:03:15.892Z,17.40
2018-08-03T00:05:45.244Z,17.50
2018-08-03T00:08:14.333Z,17.50
2018-08-03T00:10:43.522Z,17.40
2018-08-03T00:13:12.716Z,17.20
2018-08-03T00:15:41.992Z,17.00
2018-08-03T00:18:11.142Z,16.80
2018-08-03T00:20:40.397Z,16.80
2018-08-03T00:23:09.649Z,16.90
2018-08-03T00:25:38.833Z,17.10
2018-08-03T00:28:08.575Z,17.20
2018-08-03T00:30:37.736Z,17.30
2018-08-03T00:33:06.828Z,17.30
2018-08-03T00:35:36.047Z,17.20
2018-08-03T00:38:05.428Z,16.90
2018-08-03T00:40:34.634Z,16.60
2018-08-03T00:43:03.781Z,16.40
2018-08-03T00:45:32.939Z,16.30
2018-08-03T00:48:02.043Z,16.30
2018-08-03T00:50:31.174Z,16.40
2018-08-03T00:53:00.343Z,16.40
2018-08-03T00:55:29.588Z,16.50
2018-08-03T00:57:58.721Z,16.70
2018-08-03T01:00:27.984Z,16.80
2018-08-03T01:02:57.142Z,16.80
2018-08-03T01:05:26.339Z,16.80
2018-08-03T01:07:55.486Z,16.80
2018-08-03T01:10:24.647Z,16.80
2018-08-03T01:12:53.805Z,16.80
2018-08-03T01:15:22.949Z,16.60
2018-08-03T01:17:52.699Z,16.40
2018-08-03T01:20:21.873Z,16.20
2018-08-03T01:22:51.042Z,16.30
2018-08-03T01:25:20.262Z,16.30
2018-08-03T01:27:49.435Z,16.50
2018-08-03T01:30:18.688Z,16.60
2018-08-03T01:32:47.983Z,16.60
2018-08-03T01:35:17.208Z,16.60
2018-08-03T01:37:46.428Z,16.60
2018-08-03T01:40:15.511Z,16.60
2018-08-03T01:45:13.412Z,16.60
2018-08-03T01:47:42.535Z,16.60
2018-08-03T01:50:11.660Z,16.50
2018-08-03T01:52:40.813Z,16.50
2018-08-03T01:55:09.931Z,16.60
2018-08-03T01:57:39.112Z,16.60
2018-08-03T02:00:08.320Z,16.50
2018-08-03T02:02:38.168Z,16.50
2018-08-03T02:05:07.442Z,16.60
2018-08-03T02:07:37.142Z,16.60
2018-08-03T02:10:06.329Z,16.60
2018-08-03T02:12:35.509Z,16.50
2018-08-03T02:15:05.416Z,16.50
2018-08-03T02:17:34.588Z,16.40
2018-08-03T02:20:04.267Z,16.40
2018-08-03T02:22:33.424Z,16.30
2018-08-03T02:25:02.566Z,16.30
2018-08-03T02:27:31.739Z,16.30
2018-08-03T02:30:00.976Z,16.30
2018-08-03T02:32:30.752Z,16.30
2018-08-03T02:34:59.916Z,16.20
2018-08-03T02:37:29.012Z,16.20
2018-08-03T02:39:58.177Z,16.20
2018-08-03T02:42:27.363Z,16.10
2018-08-03T02:44:56.593Z,16.10
2018-08-03T02:47:25.742Z,16.10
2018-08-03T02:49:54.895Z,16.20
2018-08-03T02:52:24.040Z,16.30
2018-08-03T02:54:53.380Z,16.40
2018-08-03T02:57:22.536Z,16.40
2018-08-03T02:59:51.689Z,16.40
2018-08-03T03:02:20.855Z,16.40
2018-08-03T03:04:50.691Z,16.40
2018-08-03T03:07:19.964Z,16.30
2018-08-03T03:09:49.115Z,16.30
2018-08-03T03:12:18.286Z,16.20
2018-08-03T03:14:48.113Z,16.20
2018-08-03T03:17:17.328Z,16.20
2018-08-03T03:19:46.500Z,16.20
2018-08-03T03:22:15.607Z,16.20
2018-08-03T03:24:44.889Z,16.20
2018-08-03T03:27:14.026Z,16.20
2018-08-03T03:29:43.220Z,16.20
2018-08-03T03:32:12.951Z,16.20
2018-08-03T03:34:42.141Z,16.20
2018-08-03T03:37:11.299Z,16.20
2018-08-03T03:39:40.546Z,16.20
2018-08-03T03:42:09.679Z,16.20
2018-08-03T03:44:38.831Z,16.20
2018-08-03T03:47:07.944Z,16.20
2018-08-03T03:49:37.136Z,16.20
2018-08-03T03:52:06.268Z,16.20
2018-08-03T03:54:35.505Z,16.20
2018-08-03T03:57:04.664Z,16.20
2018-08-03T03:59:33.868Z,16.20
2018-08-03T04:02:03.072Z,16.20
2018-08-03T04:04:32.381Z,16.00
2018-08-03T04:07:01.542Z,15.90
2018-08-03T04:09:30.729Z,15.90
2018-08-03T04:11:59.950Z,16.10
2018-08-03T04:14:29.119Z,16.20
2018-08-03T04:16:58.276Z,16.20
2018-08-03T04:19:27.452Z,16.20
2018-08-03T04:21:56.580Z,16.00
2018-08-03T04:24:25.868Z,16.00
2018-08-03T04:26:55.022Z,16.10
2018-08-03T04:29:24.179Z,16.20
2018-08-03T04:31:53.339Z,16.40
2018-08-03T04:34:22.496Z,16.50
2018-08-03T04:36:51.670Z,16.50
2018-08-03T04:39:20.857Z,16.60
2018-08-03T04:41:50.088Z,16.60
2018-08-03T04:44:19.380Z,16.70
2018-08-03T04:46:48.567Z,16.70
2018-08-03T04:49:17.757Z,16.80
2018-08-03T04:51:46.924Z,16.80
2018-08-03T04:54:16.169Z,16.80
2018-08-03T04:56:45.343Z,16.90
2018-08-03T04:59:14.511Z,17.00
2018-08-03T05:01:43.660Z,17.00
2018-08-03T05:04:12.739Z,17.20
2018-08-03T05:06:41.949Z,17.30
2018-08-03T05:09:11.130Z,17.40
2018-08-03T05:11:40.345Z,17.50
2018-08-03T05:14:13.212Z,17.60
2018-08-03T05:16:42.352Z,17.70
2018-08-03T05:19:11.558Z,18.00
2018-08-03T05:21:40.726Z,18.10
2018-08-03T05:24:09.892Z,18.20
2018-08-03T05:26:38.995Z,18.40
2018-08-03T05:29:08.186Z,18.50
2018-08-03T05:31:37.307Z,18.70
2018-08-03T05:34:06.495Z,18.90
2018-08-03T05:36:35.688Z,19.00
2018-08-03T05:39:08.535Z,19.10
2018-08-03T05:41:38.036Z,19.30
2018-08-03T05:44:07.647Z,19.50
2018-08-03T05:46:36.780Z,19.60
2018-08-03T05:49:06.665Z,19.80
2018-08-03T05:51:35.838Z,20.00
2018-08-03T05:54:05.016Z,20.20
2018-08-03T05:56:34.157Z,20.40
2018-08-03T05:59:03.353Z,20.60
2018-08-03T06:01:32.529Z,20.80
2018-08-03T06:04:01.746Z,20.90
2018-08-03T06:06:30.875Z,21.10
2018-08-03T06:09:00.043Z,21.20
2018-08-03T06:11:29.188Z,21.30
2018-08-03T06:13:59.040Z,21.40
2018-08-03T06:16:28.316Z,21.50
2018-08-03T06:18:58.258Z,21.70
2018-08-03T06:21:27.672Z,21.80
2018-08-03T06:23:56.849Z,21.90
2018-08-03T06:26:25.958Z,22.10
2018-08-03T06:31:23.921Z,22.30
2018-08-03T06:33:53.138Z,22.40
2018-08-03T06:36:22.311Z,22.60
2018-08-03T06:38:51.433Z,22.70
2018-08-03T06:41:20.764Z,22.80
2018-08-03T06:43:49.912Z,22.80
2018-08-03T06:48:48.379Z,23.00
2018-08-03T06:51:17.792Z,23.20
2018-08-03T06:53:47.031Z,23.20
2018-08-03T06:56:16.860Z,23.30
2018-08-03T07:01:14.767Z,23.40
2018-08-03T07:03:43.914Z,23.50
2018-08-03T07:06:13.390Z,23.60
2018-08-03T07:08:43.004Z,23.80
2018-08-03T07:11:12.184Z,23.90
2018-08-03T07:13:41.402Z,23.90
2018-08-03T07:16:10.653Z,24.00
2018-08-03T07:21:08.888Z,24.20
2018-08-03T07:23:38.032Z,24.20
2018-08-03T07:26:07.242Z,24.20
2018-08-03T07:28:36.502Z,24.20
2018-08-03T07:31:05.680Z,24.20
2018-08-03T07:33:34.843Z,24.30
2018-08-03T07:36:04.111Z,24.50
2018-08-03T07:38:33.272Z,24.50
2018-08-03T07:41:03.139Z,24.60
2018-08-03T07:43:32.333Z,24.70
2018-08-03T07:46:01.430Z,24.80
2018-08-03T07:48:30.580Z,24.90
2018-08-03T07:50:59.707Z,25.00
2018-08-03T07:53:29.694Z,25.00
2018-08-03T07:55:58.959Z,25.00
2018-08-03T07:58:28.180Z,25.10
2018-08-03T08:00:57.395Z,25.10
2018-08-03T08:03:26.608Z,25.00
2018-08-03T08:05:55.770Z,25.00
2018-08-03T08:08:24.996Z,25.10
2018-08-03T08:10:54.238Z,25.20
2018-08-03T08:13:23.460Z,25.30
2018-08-03T08:15:52.673Z,25.50
2018-08-03T08:18:21.969Z,25.50
2018-08-03T08:20:51.134Z,25.40
2018-08-03T08:23:20.358Z,25.40
2018-08-03T08:25:49.580Z,25.40
2018-08-03T08:28:18.769Z,25.50
2018-08-03T08:30:48.040Z,25.50
2018-08-03T08:33:17.223Z,25.60
2018-08-03T08:35:46.501Z,25.80
2018-08-03T08:38:16.772Z,25.70
2018-08-03T08:40:45.997Z,25.70
2018-08-03T08:43:15.139Z,25.60
2018-08-03T08:45:44.327Z,26.00
2018-08-03T08:48:13.469Z,26.00
2018-08-03T08:50:42.673Z,26.10
2018-08-03T08:53:11.944Z,26.10
2018-08-03T08:55:41.144Z,26.20
2018-08-03T08:58:11.459Z,26.30
2018-08-03T09:00:40.679Z,26.20
2018-08-03T09:03:09.802Z,26.20
2018-08-03T09:05:38.975Z,26.30
2018-08-03T09:08:08.225Z,26.40
2018-08-03T09:10:37.460Z,26.20
2018-08-03T09:13:06.867Z,26.20
2018-08-03T09:15:35.981Z,26.40
2018-08-03T09:18:05.192Z,26.50
2018-08-03T09:20:34.420Z,26.70
2018-08-03T09:23:03.586Z,26.80
2018-08-03T09:25:32.780Z,26.80
2018-08-03T09:28:01.998Z,26.80
2018-08-03T09:30:31.227Z,27.00
2018-08-03T09:33:00.445Z,27.00
2018-08-03T09:35:29.695Z,27.10
2018-08-03T09:37:58.860Z,27.30
2018-08-03T09:40:28.615Z,27.30
2018-08-03T09:42:57.894Z,27.40
2018-08-03T09:45:27.003Z,27.50
2018-08-03T09:47:56.188Z,27.40
2018-08-03T09:50:25.392Z,27.40
2018-08-03T09:52:54.545Z,27.60
2018-08-03T09:55:23.847Z,27.70
2018-08-03T09:57:53.011Z,27.80
2018-08-03T10:00:27.399Z,27.60
2018-08-03T10:02:57.250Z,27.60
2018-08-03T10:05:26.510Z,27.80
2018-08-03T10:07:55.641Z,28.20
2018-08-03T10:10:24.797Z,28.40
2018-08-03T10:12:54.006Z,28.70
2018-08-03T10:15:23.109Z,28.70
2018-08-03T10:17:52.379Z,28.70
2018-08-03T10:20:21.566Z,28.70
2018-08-03T10:22:50.801Z,28.60
2018-08-03T10:25:19.979Z,28.50
2018-08-03T10:27:49.188Z,28.80
2018-08-03T10:30:18.455Z,28.60
2018-08-03T10:32:47.621Z,28.90
2018-08-03T10:35:17.431Z,29.00
2018-08-03T10:37:46.561Z,29.10
2018-08-03T10:40:25.827Z,29.10
2018-08-03T10:42:55.041Z,29.20
2018-08-03T10:45:24.240Z,29.20
2018-08-03T10:47:53.380Z,29.30
2018-08-03T10:50:23.157Z,29.30
2018-08-03T10:52:52.248Z,29.30
2018-08-03T10:55:21.464Z,29.50
2018-08-03T10:57:50.713Z,29.80
2018-08-03T11:00:34.812Z,29.80
2018-08-03T11:03:03.979Z,30.00
2018-08-03T11:05:33.253Z,30.10
2018-08-03T11:08:02.453Z,30.40
2018-08-03T11:10:31.616Z,30.10
2018-08-03T11:13:00.851Z,30.10
2018-08-03T11:15:29.984Z,30.40
2018-08-03T11:18:00.041Z,30.60
2018-08-03T11:20:29.279Z,30.80
2018-08-03T11:22:58.540Z,30.90
2018-08-03T11:25:27.739Z,30.00
2018-08-03T11:27:56.974Z,30.50
2018-08-03T11:30:26.191Z,30.20
2018-08-03T11:32:55.457Z,30.20
2018-08-03T11:35:24.624Z,30.80
2018-08-03T11:37:53.855Z,31.10
2018-08-03T11:40:23.048Z,31.30
2018-08-03T11:42:52.188Z,31.20
2018-08-03T11:45:21.388Z,31.20
2018-08-03T11:47:50.533Z,31.30
2018-08-03T11:50:19.710Z,31.30
2018-08-03T11:52:48.861Z,31.30
2018-08-03T11:57:46.907Z,31.30
2018-08-03T12:00:16.070Z,31.60
2018-08-03T12:02:45.430Z,31.60
2018-08-03T12:05:14.612Z,31.60
2018-08-03T12:07:43.757Z,31.60
2018-08-03T12:10:13.021Z,31.70
2018-08-03T12:12:42.171Z,31.80
2018-08-03T12:15:11.309Z,31.70
2018-08-03T12:17:40.488Z,31.90
2018-08-03T12:20:09.709Z,31.60
2018-08-03T12:22:38.872Z,31.60
2018-08-03T12:25:08.117Z,31.70
2018-08-03T12:27:37.336Z,31.50
2018-08-03T12:30:06.517Z,31.50
2018-08-03T12:32:35.707Z,31.90
2018-08-03T12:35:04.965Z,31.80
2018-08-03T12:37:34.117Z,31.70
2018-08-03T12:40:03.300Z,32.20
2018-08-03T12:42:32.489Z,32.10
2018-08-03T12:45:01.677Z,32.30
2018-08-03T12:47:30.840Z,31.90
2018-08-03T12:50:00.059Z,32.00
2018-08-03T12:52:29.529Z,32.20
2018-08-03T12:54:58.635Z,32.30
2018-08-03T12:57:27.916Z,32.20
2018-08-03T12:59:57.197Z,32.00
2018-08-03T13:02:26.388Z,31.90
2018-08-03T13:04:55.571Z,32.00
2018-08-03T13:07:24.862Z,32.00
2018-08-03T13:09:54.104Z,32.00
2018-08-03T13:12:23.272Z,32.40
2018-08-03T13:14:52.707Z,32.70
2018-08-03T13:17:21.905Z,32.50
2018-08-03T13:19:51.047Z,32.60
2018-08-03T13:22:23.089Z,32.60
2018-08-03T13:24:52.842Z,32.80
2018-08-03T13:27:22.082Z,32.80
2018-08-03T13:29:51.819Z,32.70
2018-08-03T13:32:21.473Z,32.70
2018-08-03T13:34:50.864Z,32.60
2018-08-03T13:37:20.355Z,32.70
2018-08-03T13:39:49.731Z,32.70
2018-08-03T13:42:19.074Z,32.90
2018-08-03T13:44:48.956Z,32.80
2018-08-03T13:47:18.230Z,32.70
2018-08-03T13:49:47.389Z,32.60
2018-08-03T13:52:16.847Z,32.40
2018-08-03T13:54:46.057Z,32.40
2018-08-03T13:57:15.269Z,32.50
2018-08-03T13:59:44.440Z,33.00
2018-08-03T14:02:28.169Z,33.00
2018-08-03T14:04:57.589Z,33.10
2018-08-03T14:07:27.721Z,32.90
2018-08-03T14:09:56.962Z,33.00
2018-08-03T14:12:50.079Z,32.70
2018-08-03T14:15:41.281Z,32.50
2018-08-03T14:18:32.164Z,33.20
2018-08-03T14:21:01.441Z,33.40
2018-08-03T14:23:30.627Z,33.00
2018-08-03T14:25:59.867Z,32.90
2018-08-03T14:28:29.084Z,32.70
2018-08-03T14:30:58.242Z,32.90
2018-08-03T14:33:27.579Z,33.00
2018-08-03T14:35:56.741Z,32.70
2018-08-03T14:38:25.850Z,32.90
2018-08-03T14:40:55.327Z,32.90
2018-08-03T14:43:24.542Z,32.70
2018-08-03T14:45:54.487Z,32.70
2018-08-03T14:48:23.762Z,32.90
2018-08-03T14:50:53.404Z,32.70
2018-08-03T14:53:22.558Z,32.60
2018-08-03T14:55:51.779Z,32.70
2018-08-03T14:58:21.026Z,32.60
2018-08-03T15:00:50.240Z,32.60
2018-08-03T15:03:19.564Z,32.60
2018-08-03T15:05:48.830Z,32.70
2018-08-03T15:08:18.208Z,32.60
2018-08-03T15:10:47.536Z,32.40
2018-08-03T15:13:16.742Z,32.40
2018-08-03T15:15:45.958Z,32.20
2018-08-03T15:18:15.233Z,32.00
2018-08-03T15:20:44.433Z,31.80
2018-08-03T15:23:13.693Z,31.50
2018-08-03T15:25:42.904Z,31.30
2018-08-03T15:28:12.109Z,31.20
2018-08-03T15:30:41.317Z,31.40
2018-08-03T15:33:10.534Z,31.10
2018-08-03T15:35:39.812Z,30.80
2018-08-03T15:38:09.066Z,31.20
2018-08-03T15:40:38.341Z,31.40
2018-08-03T15:43:07.500Z,31.60
2018-08-03T15:45:36.700Z,31.10
2018-08-03T15:50:34.721Z,31.00
2018-08-03T15:53:03.900Z,30.70
2018-08-03T15:55:33.164Z,30.80
2018-08-03T15:58:02.358Z,31.00
2018-08-03T16:00:31.566Z,30.90
2018-08-03T16:03:00.923Z,30.50
2018-08-03T16:05:30.086Z,30.40
2018-08-03T16:10:28.063Z,30.40
2018-08-03T16:12:57.274Z,30.30
2018-08-03T16:15:26.399Z,30.40
2018-08-03T16:17:55.513Z,30.20
2018-08-03T16:20:24.737Z,30.10
2018-08-03T16:22:53.945Z,30.30
2018-08-03T16:25:23.156Z,30.70
2018-08-03T16:27:52.318Z,30.50
2018-08-03T16:30:21.581Z,30.30
2018-08-03T16:32:50.877Z,30.40
2018-08-03T16:35:20.187Z,30.30
2018-08-03T16:37:49.411Z,30.20
2018-08-03T16:40:18.670Z,30.00
2018-08-03T16:42:47.879Z,30.20
2018-08-03T16:45:17.184Z,30.00
2018-08-03T16:47:47.198Z,29.60
2018-08-03T16:50:16.583Z,29.40
2018-08-03T16:52:45.822Z,29.40
2018-08-03T16:55:14.980Z,29.60
2018-08-03T16:57:44.169Z,29.40
2018-08-03T17:00:13.435Z,29.30
2018-08-03T17:02:42.607Z,29.10
2018-08-03T17:05:11.787Z,28.90
2018-08-03T17:07:40.960Z,29.10
2018-08-03T17:10:10.128Z,29.10
2018-08-03T17:12:39.409Z,29.20
2018-08-03T17:15:08.627Z,28.90
2018-08-03T17:17:37.854Z,28.90
2018-08-03T17:20:07.330Z,28.50
2018-08-03T17:22:37.322Z,28.30
2018-08-03T17:25:06.475Z,28.30
2018-08-03T17:27:35.610Z,28.30
2018-08-03T17:30:05.075Z,28.50
2018-08-03T17:32:34.236Z,28.40
2018-08-03T17:35:03.431Z,28.10
2018-08-03T17:37:32.618Z,28.10
2018-08-03T17:40:01.815Z,28.40
2018-08-03T17:42:30.987Z,28.00
2018-08-03T17:45:00.208Z,28.30
2018-08-03T17:47:29.485Z,28.00
2018-08-03T17:49:58.628Z,27.90
2018-08-03T17:52:27.871Z,27.80
2018-08-03T17:54:57.062Z,27.70
2018-08-03T17:57:26.232Z,27.70
2018-08-03T17:59:56.313Z,27.60
2018-08-03T18:02:25.536Z,27.60
2018-08-03T18:04:54.731Z,27.30
2018-08-03T18:07:23.857Z,26.80
2018-08-03T18:09:53.068Z,26.30
2018-08-03T18:12:22.241Z,25.70
2018-08-03T18:14:51.398Z,25.20
2018-08-03T18:17:20.549Z,24.90
2018-08-03T18:19:49.730Z,24.70
2018-08-03T18:22:19.060Z,24.40
2018-08-03T18:24:48.963Z,24.20
2018-08-03T18:27:18.213Z,24.10
2018-08-03T18:29:47.344Z,23.90
2018-08-03T18:32:16.537Z,23.70
2018-08-03T18:34:45.814Z,23.60
2018-08-03T18:37:14.900Z,23.40
2018-08-03T18:39:44.195Z,23.30
2018-08-03T18:42:13.355Z,23.10
2018-08-03T18:44:42.505Z,23.00
2018-08-03T18:47:11.720Z,22.80
2018-08-03T18:49:40.922Z,22.60
2018-08-03T18:52:10.280Z,22.50
2018-08-03T18:54:39.385Z,22.40
2018-08-03T18:57:08.632Z,22.30
2018-08-03T18:59:37.773Z,22.30
2018-08-03T19:02:07.022Z,22.20
2018-08-03T19:04:36.236Z,22.00
2018-08-03T19:07:05.549Z,21.80
2018-08-03T19:09:34.700Z,21.70
2018-08-03T19:12:04.464Z,21.70
2018-08-03T19:14:34.226Z,21.70
2018-08-03T19:17:03.589Z,21.70
2018-08-03T19:19:32.699Z,21.80
2018-08-03T19:22:02.073Z,21.90
2018-08-03T19:24:31.103Z,21.90
2018-08-03T19:27:00.272Z,21.70
2018-08-03T19:29:29.496Z,21.60
2018-08-03T19:31:58.941Z,21.50
2018-08-03T19:34:28.085Z,21.30
2018-08-03T19:36:57.226Z,21.10
2018-08-03T19:39:26.412Z,20.90
2018-08-03T19:41:55.720Z,20.80
2018-08-03T19:44:24.912Z,20.70
2018-08-03T19:46:54.145Z,20.60
2018-08-03T19:49:23.311Z,20.50
2018-08-03T19:51:52.529Z,20.40
2018-08-03T19:54:22.530Z,20.30
2018-08-03T19:56:51.758Z,20.30
2018-08-03T19:59:20.982Z,20.20
2018-08-03T20:01:50.276Z,20.20
2018-08-03T20:04:19.572Z,20.20
2018-08-03T20:06:48.811Z,20.10
2018-08-03T20:09:18.096Z,19.90
2018-08-03T20:11:47.223Z,19.90
2018-08-03T20:14:16.438Z,19.70
2018-08-03T20:16:45.729Z,19.50
2018-08-03T20:19:14.915Z,19.30
2018-08-03T20:21:44.196Z,19.20
2018-08-03T20:24:13.354Z,19.20
2018-08-03T20:26:43.463Z,19.10
2018-08-03T20:29:12.676Z,19.10
2018-08-03T20:31:41.795Z,19.00
2018-08-03T20:34:10.978Z,19.00
2018-08-03T20:36:40.080Z,18.90
2018-08-03T20:39:10.085Z,18.90
2018-08-03T20:41:39.274Z,19.00
2018-08-03T20:44:08.491Z,18.90
2018-08-03T20:46:37.599Z,18.90
2018-08-03T20:49:06.718Z,18.90
2018-08-03T20:51:35.936Z,18.90
2018-08-03T20:54:05.056Z,18.90
2018-08-03T20:56:34.342Z,18.90
2018-08-03T20:59:03.513Z,18.80
2018-08-03T21:01:32.775Z,18.70
2018-08-03T21:06:30.695Z,18.70
2018-08-03T21:08:59.865Z,18.70
2018-08-03T21:11:28.999Z,18.70
2018-08-03T21:16:26.835Z,18.80
2018-08-03T21:18:55.983Z,18.90
2018-08-03T21:21:25.224Z,18.90
2018-08-03T21:23:54.356Z,18.90
2018-08-03T21:26:23.652Z,19.00
2018-08-03T21:28:52.827Z,19.00
2018-08-03T21:31:22.003Z,18.80
2018-08-03T21:33:51.132Z,18.80
2018-08-03T21:36:21.094Z,18.50
2018-08-03T21:38:50.321Z,18.40
2018-08-03T21:41:20.714Z,18.40
2018-08-03T21:43:49.985Z,18.40
2018-08-03T21:46:19.199Z,18.40
2018-08-03T21:48:48.389Z,18.40
2018-08-03T21:51:17.646Z,18.40
2018-08-03T21:53:46.791Z,18.40
2018-08-03T21:56:15.928Z,18.40
2018-08-03T21:58:45.140Z,18.50
2018-08-03T22:01:14.333Z,18.50
2018-08-03T22:03:43.423Z,18.50
2018-08-03T22:06:12.598Z,18.50
2018-08-03T22:08:41.753Z,18.50
2018-08-03T22:11:10.980Z,18.50
2018-08-03T22:13:41.412Z,18.50
2018-08-03T22:16:10.737Z,18.30
2018-08-03T22:18:39.876Z,18.30
2018-08-03T22:21:09.056Z,18.40
2018-08-03T22:23:38.247Z,18.50
2018-08-03T22:26:07.413Z,18.70
2018-08-03T22:28:36.595Z,18.70
2018-08-03T22:31:05.733Z,18.60
2018-08-03T22:33:34.948Z,18.60
2018-08-03T22:36:04.092Z,18.60
2018-08-03T22:38:33.324Z,18.60
2018-08-03T22:41:02.630Z,18.60
2018-08-03T22:43:32.387Z,18.50
2018-08-03T22:46:01.520Z,18.60
2018-08-03T22:48:30.831Z,18.60
2018-08-03T22:51:01.513Z,18.60
2018-08-03T22:53:30.647Z,18.30
2018-08-03T22:55:59.883Z,18.20
2018-08-03T22:58:29.055Z,18.00
2018-08-03T23:00:58.341Z,18.10
2018-08-03T23:03:27.412Z,18.00
2018-08-03T23:05:56.579Z,18.00
2018-08-03T23:08:25.707Z,18.10
2018-08-03T23:10:54.841Z,18.10
2018-08-03T23:13:24.027Z,18.10
2018-08-03T23:15:53.209Z,18.10
2018-08-03T23:18:22.552Z,18.00
2018-08-03T23:20:51.768Z,18.00
2018-08-03T23:23:21.580Z,18.00
2018-08-03T23:25:50.777Z,18.00
2018-08-03T23:28:19.900Z,18.20
2018-08-03T23:30:49.124Z,18.30
2018-08-03T23:33:18.419Z,18.40
2018-08-03T23:35:47.557Z,18.50
2018-08-03T23:38:16.748Z,18.50
2018-08-03T23:40:45.928Z,18.50
2018-08-03T23:43:15.099Z,18.50
2018-08-03T23:45:44.346Z,18.50
2018-08-03T23:48:13.525Z,18.60
2018-08-03T23:50:42.748Z,18.60
2018-08-03T23:53:12.641Z,18.60
2018-08-03T23:55:41.892Z,18.50
2018-08-03T23:58:11.054Z,18.40
